sensor_id;sensor_type;location;lat;lon;timestamp;temperature;humidity
26655;DHT22;14278;50.784;4.630;2022-08-19T00:01:40;20.00;99.90
26655;DHT22;14278;50.784;4.630;2022-08-19T00:04:08;19.90;99.90
26655;DHT22;14278;50.784;4.630;2022-08-19T00:06:35;19.80;99.90
26655;DHT22;14278;50.784;4.630;2022-08-19T00:09:03;19.80;99.90
26655;DHT22;14278;50.784;4.630;2022-08-19T00:11:29;19.30;99.90
26655;DHT22;14278;50.784;4.630;2022-08-19T00:13:56;19.60;99.90
26655;DHT22;14278;50.784;4.630;2022-08-19T00:16:24;19.50;99.90
26655;DHT22;14278;50.784;4.630;2022-08-19T00:18:50;19.40;99.90
26655;DHT22;14278;50.784;4.630;2022-08-19T00:21:16;19.50;99.90
26655;DHT22;14278;50.784;4.630;2022-08-19T00:23:42;19.60;99.90
26655;DHT22;14278;50.784;4.630;2022-08-19T00:26:10;19.60;99.90
26655;DHT22;14278;50.784;4.630;2022-08-19T00:28:37;19.60;99.90
26655;DHT22;14278;50.784;4.630;2022-08-19T00:31:04;19.50;99.90
26655;DHT22;14278;50.784;4.630;2022-08-19T00:33:31;19.50;99.90
26655;DHT22;14278;50.784;4.630;2022-08-19T00:36:03;19.60;99.90
26655;DHT22;14278;50.784;4.630;2022-08-19T00:38:30;19.60;99.90
26655;DHT22;14278;50.784;4.630;2022-08-19T00:40:56;19.50;99.90
26655;DHT22;14278;50.784;4.630;2022-08-19T00:43:23;19.50;99.90
26655;DHT22;14278;50.784;4.630;2022-08-19T00:45:51;19.50;99.90
26655;DHT22;14278;50.784;4.630;2022-08-19T00:48:17;19.20;99.90
26655;DHT22;14278;50.784;4.630;2022-08-19T00:50:44;19.60;99.90
26655;DHT22;14278;50.784;4.630;2022-08-19T00:53:16;20.00;99.90
26655;DHT22;14278;50.784;4.630;2022-08-19T00:55:49;20.10;99.90
26655;DHT22;14278;50.784;4.630;2022-08-19T00:58:18;20.00;99.90
26655;DHT22;14278;50.784;4.630;2022-08-19T01:00:45;19.80;99.90
26655;DHT22;14278;50.784;4.630;2022-08-19T01:03:13;19.40;99.90
26655;DHT22;14278;50.784;4.630;2022-08-19T01:05:42;19.20;99.90
26655;DHT22;14278;50.784;4.630;2022-08-19T01:08:08;19.30;99.90
26655;DHT22;14278;50.784;4.630;2022-08-19T01:10:40;19.20;99.90
26655;DHT22;14278;50.784;4.630;2022-08-19T01:13:07;19.20;99.90
26655;DHT22;14278;50.784;4.630;2022-08-19T01:15:40;19.60;99.90
26655;DHT22;14278;50.784;4.630;2022-08-19T01:18:11;19.30;99.90
26655;DHT22;14278;50.784;4.630;2022-08-19T01:20:37;19.30;99.90
26655;DHT22;14278;50.784;4.630;2022-08-19T01:23:04;19.00;99.90
26655;DHT22;14278;50.784;4.630;2022-08-19T01:25:38;19.00;99.90
26655;DHT22;14278;50.784;4.630;2022-08-19T01:28:06;19.00;99.90
26655;DHT22;14278;50.784;4.630;2022-08-19T01:30:34;19.00;99.90
26655;DHT22;14278;50.784;4.630;2022-08-19T01:33:01;19.00;99.90
26655;DHT22;14278;50.784;4.630;2022-08-19T01:35:29;19.00;99.90
26655;DHT22;14278;50.784;4.630;2022-08-19T01:37:59;19.00;99.90
26655;DHT22;14278;50.784;4.630;2022-08-19T01:40:28;19.10;99.90
26655;DHT22;14278;50.784;4.630;2022-08-19T01:42:55;19.00;99.90
26655;DHT22;14278;50.784;4.630;2022-08-19T01:45:24;18.90;99.90
26655;DHT22;14278;50.784;4.630;2022-08-19T01:47:51;18.70;99.90
26655;DHT22;14278;50.784;4.630;2022-08-19T01:50:17;18.50;99.90
26655;DHT22;14278;50.784;4.630;2022-08-19T01:52:44;18.60;99.90
26655;DHT22;14278;50.784;4.630;2022-08-19T01:55:16;18.90;99.90
26655;DHT22;14278;50.784;4.630;2022-08-19T01:57:46;19.00;99.90
26655;DHT22;14278;50.784;4.630;2022-08-19T02:00:15;19.30;99.90
26655;DHT22;14278;50.784;4.630;2022-08-19T02:02:41;19.20;99.90
26655;DHT22;14278;50.784;4.630;2022-08-19T02:05:08;19.00;99.90
26655;DHT22;14278;50.784;4.630;2022-08-19T02:07:35;18.80;99.90
26655;DHT22;14278;50.784;4.630;2022-08-19T02:10:03;18.60;99.90
26655;DHT22;14278;50.784;4.630;2022-08-19T02:12:29;18.60;99.90
26655;DHT22;14278;50.784;4.630;2022-08-19T02:14:55;18.80;99.90
26655;DHT22;14278;50.784;4.630;2022-08-19T02:17:21;18.90;99.90
26655;DHT22;14278;50.784;4.630;2022-08-19T02:19:47;18.70;99.90
26655;DHT22;14278;50.784;4.630;2022-08-19T02:22:14;18.60;99.90
26655;DHT22;14278;50.784;4.630;2022-08-19T02:24:40;18.70;99.90
26655;DHT22;14278;50.784;4.630;2022-08-19T02:27:06;18.70;99.90
26655;DHT22;14278;50.784;4.630;2022-08-19T02:29:32;18.90;99.90
26655;DHT22;14278;50.784;4.630;2022-08-19T02:31:58;19.00;99.90
26655;DHT22;14278;50.784;4.630;2022-08-19T02:34:24;19.10;99.90
26655;DHT22;14278;50.784;4.630;2022-08-19T02:36:51;19.10;99.90
26655;DHT22;14278;50.784;4.630;2022-08-19T02:39:18;19.10;99.90
26655;DHT22;14278;50.784;4.630;2022-08-19T02:41:43;18.70;99.90
26655;DHT22;14278;50.784;4.630;2022-08-19T02:44:10;18.50;99.90
26655;DHT22;14278;50.784;4.630;2022-08-19T02:46:36;18.30;99.90
26655;DHT22;14278;50.784;4.630;2022-08-19T02:49:07;18.60;99.90
26655;DHT22;14278;50.784;4.630;2022-08-19T02:51:37;18.50;99.90
26655;DHT22;14278;50.784;4.630;2022-08-19T02:54:05;18.40;99.90
26655;DHT22;14278;50.784;4.630;2022-08-19T02:56:34;18.30;99.90
26655;DHT22;14278;50.784;4.630;2022-08-19T02:59:00;18.20;99.90
26655;DHT22;14278;50.784;4.630;2022-08-19T03:01:28;18.40;99.90
26655;DHT22;14278;50.784;4.630;2022-08-19T03:03:56;18.50;99.90
26655;DHT22;14278;50.784;4.630;2022-08-19T03:06:22;18.50;99.90
26655;DHT22;14278;50.784;4.630;2022-08-19T03:08:50;18.70;99.90
26655;DHT22;14278;50.784;4.630;2022-08-19T03:11:28;18.70;99.90
26655;DHT22;14278;50.784;4.630;2022-08-19T03:13:55;18.60;99.90
26655;DHT22;14278;50.784;4.630;2022-08-19T03:16:24;18.40;99.90
26655;DHT22;14278;50.784;4.630;2022-08-19T03:18:51;18.20;99.90
26655;DHT22;14278;50.784;4.630;2022-08-19T03:21:24;18.40;99.90
26655;DHT22;14278;50.784;4.630;2022-08-19T03:23:54;18.60;99.90
26655;DHT22;14278;50.784;4.630;2022-08-19T03:26:20;18.70;99.90
26655;DHT22;14278;50.784;4.630;2022-08-19T03:28:46;18.70;99.90
26655;DHT22;14278;50.784;4.630;2022-08-19T03:31:19;18.50;99.90
26655;DHT22;14278;50.784;4.630;2022-08-19T03:33:46;18.50;99.90
26655;DHT22;14278;50.784;4.630;2022-08-19T03:36:14;18.30;99.90
26655;DHT22;14278;50.784;4.630;2022-08-19T03:38:47;18.60;99.90
26655;DHT22;14278;50.784;4.630;2022-08-19T03:41:22;18.70;99.90
26655;DHT22;14278;50.784;4.630;2022-08-19T03:43:48;18.70;99.90
26655;DHT22;14278;50.784;4.630;2022-08-19T03:46:20;18.50;99.90
26655;DHT22;14278;50.784;4.630;2022-08-19T03:48:47;18.50;99.90
26655;DHT22;14278;50.784;4.630;2022-08-19T03:51:22;18.40;99.90
26655;DHT22;14278;50.784;4.630;2022-08-19T03:53:48;18.00;99.90
26655;DHT22;14278;50.784;4.630;2022-08-19T03:56:14;18.10;99.90
26655;DHT22;14278;50.784;4.630;2022-08-19T03:58:41;18.30;99.90
26655;DHT22;14278;50.784;4.630;2022-08-19T04:01:10;18.40;99.90
26655;DHT22;14278;50.784;4.630;2022-08-19T04:03:37;18.50;99.90
26655;DHT22;14278;50.784;4.630;2022-08-19T04:06:13;18.30;99.90
26655;DHT22;14278;50.784;4.630;2022-08-19T04:08:42;18.20;99.90
26655;DHT22;14278;50.784;4.630;2022-08-19T04:11:11;18.20;99.90
26655;DHT22;14278;50.784;4.630;2022-08-19T04:13:37;17.80;99.90
26655;DHT22;14278;50.784;4.630;2022-08-19T04:16:04;18.20;99.90
26655;DHT22;14278;50.784;4.630;2022-08-19T04:18:31;18.10;99.90
26655;DHT22;14278;50.784;4.630;2022-08-19T04:20:58;18.20;99.90
26655;DHT22;14278;50.784;4.630;2022-08-19T04:23:24;18.20;99.90
26655;DHT22;14278;50.784;4.630;2022-08-19T04:25:50;18.00;99.90
26655;DHT22;14278;50.784;4.630;2022-08-19T04:28:16;18.10;99.90
26655;DHT22;14278;50.784;4.630;2022-08-19T04:30:46;17.80;99.90
26655;DHT22;14278;50.784;4.630;2022-08-19T04:33:14;17.90;99.90
26655;DHT22;14278;50.784;4.630;2022-08-19T04:35:47;18.00;99.90
26655;DHT22;14278;50.784;4.630;2022-08-19T04:38:15;18.20;99.90
26655;DHT22;14278;50.784;4.630;2022-08-19T04:40:42;18.40;99.90
26655;DHT22;14278;50.784;4.630;2022-08-19T04:43:28;18.40;99.90
26655;DHT22;14278;50.784;4.630;2022-08-19T04:45:54;18.60;99.90
26655;DHT22;14278;50.784;4.630;2022-08-19T04:48:20;18.50;99.90
26655;DHT22;14278;50.784;4.630;2022-08-19T04:50:52;18.50;99.90
26655;DHT22;14278;50.784;4.630;2022-08-19T04:53:26;18.40;99.90
26655;DHT22;14278;50.784;4.630;2022-08-19T04:55:57;18.60;99.90
26655;DHT22;14278;50.784;4.630;2022-08-19T04:58:25;18.50;99.90
26655;DHT22;14278;50.784;4.630;2022-08-19T05:00:52;18.40;99.90
26655;DHT22;14278;50.784;4.630;2022-08-19T05:03:18;18.30;99.90
26655;DHT22;14278;50.784;4.630;2022-08-19T05:05:45;18.30;99.90
26655;DHT22;14278;50.784;4.630;2022-08-19T05:08:15;18.10;99.90
26655;DHT22;14278;50.784;4.630;2022-08-19T05:10:48;18.10;99.90
26655;DHT22;14278;50.784;4.630;2022-08-19T05:13:15;18.30;99.90
26655;DHT22;14278;50.784;4.630;2022-08-19T05:15:42;18.10;99.90
26655;DHT22;14278;50.784;4.630;2022-08-19T05:18:08;18.30;99.90
26655;DHT22;14278;50.784;4.630;2022-08-19T05:20:52;18.30;99.90
26655;DHT22;14278;50.784;4.630;2022-08-19T05:23:36;18.40;99.90
26655;DHT22;14278;50.784;4.630;2022-08-19T05:26:02;18.50;99.90
26655;DHT22;14278;50.784;4.630;2022-08-19T05:28:28;18.70;99.90
26655;DHT22;14278;50.784;4.630;2022-08-19T05:30:53;18.80;99.90
26655;DHT22;14278;50.784;4.630;2022-08-19T05:33:21;18.50;99.90
26655;DHT22;14278;50.784;4.630;2022-08-19T05:35:48;18.80;99.90
26655;DHT22;14278;50.784;4.630;2022-08-19T05:38:16;19.00;99.90
26655;DHT22;14278;50.784;4.630;2022-08-19T05:40:42;19.00;99.90
26655;DHT22;14278;50.784;4.630;2022-08-19T05:43:12;19.20;99.90
26655;DHT22;14278;50.784;4.630;2022-08-19T05:45:39;19.40;99.90
26655;DHT22;14278;50.784;4.630;2022-08-19T05:48:05;19.30;99.90
26655;DHT22;14278;50.784;4.630;2022-08-19T05:50:31;19.10;99.90
26655;DHT22;14278;50.784;4.630;2022-08-19T05:52:57;19.20;99.90
26655;DHT22;14278;50.784;4.630;2022-08-19T05:55:23;19.40;99.90
26655;DHT22;14278;50.784;4.630;2022-08-19T05:57:49;19.70;99.90
26655;DHT22;14278;50.784;4.630;2022-08-19T06:00:15;19.60;99.90
26655;DHT22;14278;50.784;4.630;2022-08-19T06:02:41;19.70;99.90
26655;DHT22;14278;50.784;4.630;2022-08-19T06:05:08;19.90;99.90
26655;DHT22;14278;50.784;4.630;2022-08-19T06:07:35;20.00;99.90
26655;DHT22;14278;50.784;4.630;2022-08-19T06:10:03;19.90;99.90
26655;DHT22;14278;50.784;4.630;2022-08-19T06:12:30;20.10;99.90
26655;DHT22;14278;50.784;4.630;2022-08-19T06:15:05;20.10;99.90
26655;DHT22;14278;50.784;4.630;2022-08-19T06:17:31;19.90;99.90
26655;DHT22;14278;50.784;4.630;2022-08-19T06:31:09;20.40;99.90
26655;DHT22;14278;50.784;4.630;2022-08-19T06:33:35;20.50;99.90
26655;DHT22;14278;50.784;4.630;2022-08-19T06:36:01;20.80;99.90
26655;DHT22;14278;50.784;4.630;2022-08-19T06:38:27;21.10;99.90
26655;DHT22;14278;50.784;4.630;2022-08-19T06:41:04;21.20;99.90
26655;DHT22;14278;50.784;4.630;2022-08-19T06:43:30;21.80;99.90
26655;DHT22;14278;50.784;4.630;2022-08-19T06:45:55;22.90;99.90
26655;DHT22;14278;50.784;4.630;2022-08-19T06:48:22;24.00;99.90
26655;DHT22;14278;50.784;4.630;2022-08-19T06:50:47;24.90;99.90
26655;DHT22;14278;50.784;4.630;2022-08-19T06:53:15;26.40;99.90
26655;DHT22;14278;50.784;4.630;2022-08-19T06:55:41;26.60;99.90
26655;DHT22;14278;50.784;4.630;2022-08-19T06:58:06;26.30;99.90
26655;DHT22;14278;50.784;4.630;2022-08-19T07:00:33;27.10;99.90
26655;DHT22;14278;50.784;4.630;2022-08-19T07:02:59;28.30;99.90
26655;DHT22;14278;50.784;4.630;2022-08-19T07:05:26;28.30;99.90
26655;DHT22;14278;50.784;4.630;2022-08-19T07:07:51;28.40;99.90
26655;DHT22;14278;50.784;4.630;2022-08-19T07:10:17;28.10;99.90
26655;DHT22;14278;50.784;4.630;2022-08-19T07:12:44;27.80;99.90
26655;DHT22;14278;50.784;4.630;2022-08-19T07:20:20;28.00;99.90
26655;DHT22;14278;50.784;4.630;2022-08-19T07:22:46;27.70;99.90
26655;DHT22;14278;50.784;4.630;2022-08-19T07:25:12;27.40;99.90
26655;DHT22;14278;50.784;4.630;2022-08-19T07:27:38;27.30;99.90
26655;DHT22;14278;50.784;4.630;2022-08-19T07:30:06;27.80;99.90
26655;DHT22;14278;50.784;4.630;2022-08-19T07:32:32;28.30;99.90
26655;DHT22;14278;50.784;4.630;2022-08-19T07:34:58;28.30;99.90
26655;DHT22;14278;50.784;4.630;2022-08-19T07:37:25;27.90;99.90
26655;DHT22;14278;50.784;4.630;2022-08-19T07:39:54;27.00;99.90
26655;DHT22;14278;50.784;4.630;2022-08-19T07:42:19;26.60;99.90
26655;DHT22;14278;50.784;4.630;2022-08-19T07:44:47;25.60;99.90
26655;DHT22;14278;50.784;4.630;2022-08-19T07:47:12;25.30;99.90
26655;DHT22;14278;50.784;4.630;2022-08-19T07:49:41;24.90;99.90
26655;DHT22;14278;50.784;4.630;2022-08-19T07:52:09;24.50;99.90
26655;DHT22;14278;50.784;4.630;2022-08-19T07:54:37;24.10;99.90
26655;DHT22;14278;50.784;4.630;2022-08-19T07:57:04;23.70;99.90
26655;DHT22;14278;50.784;4.630;2022-08-19T07:59:30;23.70;99.90
26655;DHT22;14278;50.784;4.630;2022-08-19T08:01:57;23.50;99.90
26655;DHT22;14278;50.784;4.630;2022-08-19T08:04:26;23.70;99.90
26655;DHT22;14278;50.784;4.630;2022-08-19T08:07:11;23.80;99.90
26655;DHT22;14278;50.784;4.630;2022-08-19T08:09:56;24.00;99.90
26655;DHT22;14278;50.784;4.630;2022-08-19T08:12:26;24.70;99.90
26655;DHT22;14278;50.784;4.630;2022-08-19T08:14:56;24.90;99.90
26655;DHT22;14278;50.784;4.630;2022-08-19T08:17:25;24.70;99.90
26655;DHT22;14278;50.784;4.630;2022-08-19T08:19:52;24.80;99.90
26655;DHT22;14278;50.784;4.630;2022-08-19T08:22:21;25.60;99.90
26655;DHT22;14278;50.784;4.630;2022-08-19T09:09:30;25.90;99.90
26655;DHT22;14278;50.784;4.630;2022-08-19T09:12:06;25.30;99.90
26655;DHT22;14278;50.784;4.630;2022-08-19T09:14:55;25.40;99.90
26655;DHT22;14278;50.784;4.630;2022-08-19T09:17:29;25.30;99.90
26655;DHT22;14278;50.784;4.630;2022-08-19T09:20:21;25.90;99.90
26655;DHT22;14278;50.784;4.630;2022-08-19T09:22:48;25.70;99.90
26655;DHT22;14278;50.784;4.630;2022-08-19T09:25:19;26.70;99.90
26655;DHT22;14278;50.784;4.630;2022-08-19T09:27:48;26.90;99.90
26655;DHT22;14278;50.784;4.630;2022-08-19T09:30:18;26.60;99.90
26655;DHT22;14278;50.784;4.630;2022-08-19T09:32:45;26.10;99.90
26655;DHT22;14278;50.784;4.630;2022-08-19T09:35:12;25.80;99.90
26655;DHT22;14278;50.784;4.630;2022-08-19T09:37:39;25.70;99.90
26655;DHT22;14278;50.784;4.630;2022-08-19T09:40:05;25.30;99.90
26655;DHT22;14278;50.784;4.630;2022-08-19T09:42:32;25.50;99.90
26655;DHT22;14278;50.784;4.630;2022-08-19T09:44:59;25.50;99.90
26655;DHT22;14278;50.784;4.630;2022-08-19T09:47:25;25.30;99.90
26655;DHT22;14278;50.784;4.630;2022-08-19T09:49:51;25.30;99.90
26655;DHT22;14278;50.784;4.630;2022-08-19T09:52:17;25.50;99.90
26655;DHT22;14278;50.784;4.630;2022-08-19T09:54:45;25.20;99.90
26655;DHT22;14278;50.784;4.630;2022-08-19T09:57:10;25.30;99.90
26655;DHT22;14278;50.784;4.630;2022-08-19T09:59:38;25.10;99.90
26655;DHT22;14278;50.784;4.630;2022-08-19T10:02:04;24.70;99.90
26655;DHT22;14278;50.784;4.630;2022-08-19T10:04:30;24.50;99.90
26655;DHT22;14278;50.784;4.630;2022-08-19T10:07:15;24.60;99.90
26655;DHT22;14278;50.784;4.630;2022-08-19T10:09:40;24.70;99.90
26655;DHT22;14278;50.784;4.630;2022-08-19T10:12:07;24.70;99.90
26655;DHT22;14278;50.784;4.630;2022-08-19T10:14:34;24.80;99.90
26655;DHT22;14278;50.784;4.630;2022-08-19T10:17:00;24.70;99.90
26655;DHT22;14278;50.784;4.630;2022-08-19T10:19:28;24.90;99.90
26655;DHT22;14278;50.784;4.630;2022-08-19T10:21:57;24.80;99.90
26655;DHT22;14278;50.784;4.630;2022-08-19T10:24:24;24.70;99.90
26655;DHT22;14278;50.784;4.630;2022-08-19T10:26:51;24.50;99.90
26655;DHT22;14278;50.784;4.630;2022-08-19T10:29:17;24.30;99.90
26655;DHT22;14278;50.784;4.630;2022-08-19T10:31:42;24.10;99.90
26655;DHT22;14278;50.784;4.630;2022-08-19T10:34:08;23.80;99.90
26655;DHT22;14278;50.784;4.630;2022-08-19T10:36:36;24.00;99.90
26655;DHT22;14278;50.784;4.630;2022-08-19T10:39:08;24.40;99.90
26655;DHT22;14278;50.784;4.630;2022-08-19T10:41:37;25.10;99.90
26655;DHT22;14278;50.784;4.630;2022-08-19T10:44:08;25.50;99.90
26655;DHT22;14278;50.784;4.630;2022-08-19T10:46:38;25.60;99.90
26655;DHT22;14278;50.784;4.630;2022-08-19T10:49:09;25.80;99.90
26655;DHT22;14278;50.784;4.630;2022-08-19T10:51:37;25.60;99.90
26655;DHT22;14278;50.784;4.630;2022-08-19T10:54:22;25.30;99.90
26655;DHT22;14278;50.784;4.630;2022-08-19T10:56:48;25.20;99.90
26655;DHT22;14278;50.784;4.630;2022-08-19T10:59:19;25.10;99.90
26655;DHT22;14278;50.784;4.630;2022-08-19T11:01:46;25.40;99.90
26655;DHT22;14278;50.784;4.630;2022-08-19T11:04:12;25.30;99.90
26655;DHT22;14278;50.784;4.630;2022-08-19T11:06:43;25.30;99.90
26655;DHT22;14278;50.784;4.630;2022-08-19T11:09:10;25.40;99.90
26655;DHT22;14278;50.784;4.630;2022-08-19T11:11:38;25.60;99.90
26655;DHT22;14278;50.784;4.630;2022-08-19T11:14:08;25.60;99.90
26655;DHT22;14278;50.784;4.630;2022-08-19T11:16:35;25.40;99.90
26655;DHT22;14278;50.784;4.630;2022-08-19T11:19:03;25.10;99.90
26655;DHT22;14278;50.784;4.630;2022-08-19T11:21:35;24.90;99.90
26655;DHT22;14278;50.784;4.630;2022-08-19T11:24:05;25.10;99.90
26655;DHT22;14278;50.784;4.630;2022-08-19T11:26:32;25.30;99.90
26655;DHT22;14278;50.784;4.630;2022-08-19T11:28:59;25.10;99.90
26655;DHT22;14278;50.784;4.630;2022-08-19T11:31:30;25.00;99.90
26655;DHT22;14278;50.784;4.630;2022-08-19T11:33:58;25.10;99.90
26655;DHT22;14278;50.784;4.630;2022-08-19T11:36:25;25.00;99.90
26655;DHT22;14278;50.784;4.630;2022-08-19T11:38:52;25.40;99.90
26655;DHT22;14278;50.784;4.630;2022-08-19T11:41:19;25.60;99.90
26655;DHT22;14278;50.784;4.630;2022-08-19T11:43:46;25.70;99.90
26655;DHT22;14278;50.784;4.630;2022-08-19T11:46:14;25.30;99.90
26655;DHT22;14278;50.784;4.630;2022-08-19T11:48:40;24.70;99.90
26655;DHT22;14278;50.784;4.630;2022-08-19T11:51:09;24.60;99.90
26655;DHT22;14278;50.784;4.630;2022-08-19T11:53:36;24.30;99.90
26655;DHT22;14278;50.784;4.630;2022-08-19T11:56:04;24.40;99.90
26655;DHT22;14278;50.784;4.630;2022-08-19T11:58:30;24.10;99.90
26655;DHT22;14278;50.784;4.630;2022-08-19T12:00:56;24.00;99.90
26655;DHT22;14278;50.784;4.630;2022-08-19T12:03:22;24.20;99.90
26655;DHT22;14278;50.784;4.630;2022-08-19T12:05:48;24.90;99.90
26655;DHT22;14278;50.784;4.630;2022-08-19T12:08:15;24.80;99.90
26655;DHT22;14278;50.784;4.630;2022-08-19T12:10:42;25.00;99.90
26655;DHT22;14278;50.784;4.630;2022-08-19T12:13:09;25.60;99.90
26655;DHT22;14278;50.784;4.630;2022-08-19T12:15:37;26.00;99.90
26655;DHT22;14278;50.784;4.630;2022-08-19T12:18:03;26.20;99.90
26655;DHT22;14278;50.784;4.630;2022-08-19T12:20:29;25.80;99.90
26655;DHT22;14278;50.784;4.630;2022-08-19T12:22:55;25.80;99.90
26655;DHT22;14278;50.784;4.630;2022-08-19T12:25:22;26.00;99.90
26655;DHT22;14278;50.784;4.630;2022-08-19T12:27:47;25.90;99.90
26655;DHT22;14278;50.784;4.630;2022-08-19T12:30:14;25.70;99.90
26655;DHT22;14278;50.784;4.630;2022-08-19T12:32:40;25.30;99.90
26655;DHT22;14278;50.784;4.630;2022-08-19T12:35:06;25.50;99.90
26655;DHT22;14278;50.784;4.630;2022-08-19T12:37:34;25.80;99.90
26655;DHT22;14278;50.784;4.630;2022-08-19T12:39:59;26.20;99.90
26655;DHT22;14278;50.784;4.630;2022-08-19T12:42:25;26.10;99.90
26655;DHT22;14278;50.784;4.630;2022-08-19T12:44:51;26.20;99.90
26655;DHT22;14278;50.784;4.630;2022-08-19T12:47:17;26.20;99.90
26655;DHT22;14278;50.784;4.630;2022-08-19T12:49:44;26.30;99.90
26655;DHT22;14278;50.784;4.630;2022-08-19T12:52:11;26.30;99.90
26655;DHT22;14278;50.784;4.630;2022-08-19T12:54:40;26.30;99.90
26655;DHT22;14278;50.784;4.630;2022-08-19T12:57:07;26.70;99.90
26655;DHT22;14278;50.784;4.630;2022-08-19T12:59:36;27.00;99.90
26655;DHT22;14278;50.784;4.630;2022-08-19T13:02:04;26.90;99.90
26655;DHT22;14278;50.784;4.630;2022-08-19T13:04:32;27.20;99.90
26655;DHT22;14278;50.784;4.630;2022-08-19T13:06:58;27.20;99.90
26655;DHT22;14278;50.784;4.630;2022-08-19T13:09:24;27.50;99.90
26655;DHT22;14278;50.784;4.630;2022-08-19T13:11:50;27.70;99.90
26655;DHT22;14278;50.784;4.630;2022-08-19T13:14:16;28.00;99.90
26655;DHT22;14278;50.784;4.630;2022-08-19T13:16:41;27.70;99.90
26655;DHT22;14278;50.784;4.630;2022-08-19T13:19:08;27.80;99.90
26655;DHT22;14278;50.784;4.630;2022-08-19T13:21:33;27.80;99.90
26655;DHT22;14278;50.784;4.630;2022-08-19T13:23:59;27.20;99.90
26655;DHT22;14278;50.784;4.630;2022-08-19T13:26:25;27.00;99.90
26655;DHT22;14278;50.784;4.630;2022-08-19T13:28:51;26.90;99.90
26655;DHT22;14278;50.784;4.630;2022-08-19T13:31:38;26.70;99.90
26655;DHT22;14278;50.784;4.630;2022-08-19T13:34:33;26.60;99.90
26655;DHT22;14278;50.784;4.630;2022-08-19T13:37:01;26.50;99.90
26655;DHT22;14278;50.784;4.630;2022-08-19T13:39:32;26.50;99.90
26655;DHT22;14278;50.784;4.630;2022-08-19T13:41:58;26.70;99.90
26655;DHT22;14278;50.784;4.630;2022-08-19T13:44:25;26.60;99.90
26655;DHT22;14278;50.784;4.630;2022-08-19T13:46:51;26.50;99.90
26655;DHT22;14278;50.784;4.630;2022-08-19T13:49:19;26.50;99.90
26655;DHT22;14278;50.784;4.630;2022-08-19T13:51:46;26.50;99.90
26655;DHT22;14278;50.784;4.630;2022-08-19T13:54:12;26.60;99.90
26655;DHT22;14278;50.784;4.630;2022-08-19T13:56:43;27.10;99.90
26655;DHT22;14278;50.784;4.630;2022-08-19T13:59:09;27.10;99.90
26655;DHT22;14278;50.784;4.630;2022-08-19T14:01:36;26.90;99.90
26655;DHT22;14278;50.784;4.630;2022-08-19T14:04:05;27.00;99.90
26655;DHT22;14278;50.784;4.630;2022-08-19T14:06:32;26.50;99.90
26655;DHT22;14278;50.784;4.630;2022-08-19T14:08:57;26.90;99.90
26655;DHT22;14278;50.784;4.630;2022-08-19T14:11:23;27.10;99.90
26655;DHT22;14278;50.784;4.630;2022-08-19T14:13:50;27.00;99.90
26655;DHT22;14278;50.784;4.630;2022-08-19T14:16:16;26.90;99.90
26655;DHT22;14278;50.784;4.630;2022-08-19T14:18:43;26.90;99.90
26655;DHT22;14278;50.784;4.630;2022-08-19T14:21:15;27.20;99.90
26655;DHT22;14278;50.784;4.630;2022-08-19T14:23:42;27.00;99.90
26655;DHT22;14278;50.784;4.630;2022-08-19T14:26:11;27.30;99.90
26655;DHT22;14278;50.784;4.630;2022-08-19T14:28:38;27.00;99.90
26655;DHT22;14278;50.784;4.630;2022-08-19T14:31:06;27.00;99.90
26655;DHT22;14278;50.784;4.630;2022-08-19T14:33:31;27.40;99.90
26655;DHT22;14278;50.784;4.630;2022-08-19T14:35:58;27.50;99.90
26655;DHT22;14278;50.784;4.630;2022-08-19T14:38:26;27.40;99.90
26655;DHT22;14278;50.784;4.630;2022-08-19T14:40:52;27.00;99.90
26655;DHT22;14278;50.784;4.630;2022-08-19T14:43:18;26.50;99.90
26655;DHT22;14278;50.784;4.630;2022-08-19T14:45:44;26.50;99.90
26655;DHT22;14278;50.784;4.630;2022-08-19T14:48:10;26.10;99.90
26655;DHT22;14278;50.784;4.630;2022-08-19T14:50:36;26.10;99.90
26655;DHT22;14278;50.784;4.630;2022-08-19T14:53:07;26.00;99.90
26655;DHT22;14278;50.784;4.630;2022-08-19T14:55:34;25.70;99.90
26655;DHT22;14278;50.784;4.630;2022-08-19T14:58:00;25.50;99.90
26655;DHT22;14278;50.784;4.630;2022-08-19T15:00:26;25.20;99.90
26655;DHT22;14278;50.784;4.630;2022-08-19T15:02:52;25.10;99.90
26655;DHT22;14278;50.784;4.630;2022-08-19T15:05:20;25.10;99.90
26655;DHT22;14278;50.784;4.630;2022-08-19T15:07:46;25.10;99.90
26655;DHT22;14278;50.784;4.630;2022-08-19T15:10:14;24.90;99.90
26655;DHT22;14278;50.784;4.630;2022-08-19T15:12:40;24.80;99.90
26655;DHT22;14278;50.784;4.630;2022-08-19T15:15:10;24.70;99.90
26655;DHT22;14278;50.784;4.630;2022-08-19T15:17:39;24.50;99.90
26655;DHT22;14278;50.784;4.630;2022-08-19T15:20:06;24.70;99.90
26655;DHT22;14278;50.784;4.630;2022-08-19T15:22:33;24.80;99.90
26655;DHT22;14278;50.784;4.630;2022-08-19T15:24:59;25.00;99.90
26655;DHT22;14278;50.784;4.630;2022-08-19T15:27:26;25.50;99.90
26655;DHT22;14278;50.784;4.630;2022-08-19T15:29:52;25.80;99.90
26655;DHT22;14278;50.784;4.630;2022-08-19T15:32:18;26.10;99.90
26655;DHT22;14278;50.784;4.630;2022-08-19T15:34:44;26.50;99.90
26655;DHT22;14278;50.784;4.630;2022-08-19T15:37:11;26.80;99.90
26655;DHT22;14278;50.784;4.630;2022-08-19T15:39:36;26.90;99.90
26655;DHT22;14278;50.784;4.630;2022-08-19T15:42:03;26.90;99.90
26655;DHT22;14278;50.784;4.630;2022-08-19T15:44:29;26.80;99.90
26655;DHT22;14278;50.784;4.630;2022-08-19T15:46:54;26.50;99.90
26655;DHT22;14278;50.784;4.630;2022-08-19T15:49:20;26.10;99.90
26655;DHT22;14278;50.784;4.630;2022-08-19T15:51:48;25.80;99.90
26655;DHT22;14278;50.784;4.630;2022-08-19T15:54:16;25.20;99.90
26655;DHT22;14278;50.784;4.630;2022-08-19T15:56:46;25.10;99.90
26655;DHT22;14278;50.784;4.630;2022-08-19T15:59:31;25.00;99.90
26655;DHT22;14278;50.784;4.630;2022-08-19T16:02:17;24.90;99.90
26655;DHT22;14278;50.784;4.630;2022-08-19T16:05:03;24.60;99.90
26655;DHT22;14278;50.784;4.630;2022-08-19T16:07:47;24.40;99.90
26655;DHT22;14278;50.784;4.630;2022-08-19T16:10:15;24.30;99.90
26655;DHT22;14278;50.784;4.630;2022-08-19T16:12:41;24.40;99.90
26655;DHT22;14278;50.784;4.630;2022-08-19T16:15:09;24.50;99.90
26655;DHT22;14278;50.784;4.630;2022-08-19T16:17:36;24.60;99.90
26655;DHT22;14278;50.784;4.630;2022-08-19T16:20:04;24.70;99.90
26655;DHT22;14278;50.784;4.630;2022-08-19T16:22:32;24.60;99.90
26655;DHT22;14278;50.784;4.630;2022-08-19T16:24:58;24.70;99.90
26655;DHT22;14278;50.784;4.630;2022-08-19T16:27:24;24.60;99.90
26655;DHT22;14278;50.784;4.630;2022-08-19T16:29:51;24.40;99.90
26655;DHT22;14278;50.784;4.630;2022-08-19T16:32:17;24.50;99.90
26655;DHT22;14278;50.784;4.630;2022-08-19T16:34:44;24.90;99.90
26655;DHT22;14278;50.784;4.630;2022-08-19T16:37:10;24.80;99.90